Terminal Aerodrome Forecast
Issued by NWS Jackson, MS

Home | Current Version | Previous Version | Text Only | Print | Product List | Glossary On
Versions: 1 2 3 4 5 6 7 8 9 10 11 12 13 14 15 16 17 18
000
FTUS44 KJAN 290523
TAFHBG
TAF
KHBG 290523Z 2906/3006 14003KT P6SM SCT250
     FM291000 00000KT 4SM BR OVC003
     FM291100 00000KT 2SM BR BKN001
     FM291300 12003KT 4SM BR BKN003
     FM291500 14005KT P6SM BKN015
     FM291700 16006KT P6SM VCTS SCT040CB
     FM300000 17003KT P6SM BKN110=

USA.gov is the U.S. government's official web portal to all federal, state and local government web resources and services.